Time;durP1;ratioP1;P1;durP2;ratioP2;P2;SDS_P1;SDS_P2;PMS_P1;PMS_P2;Temp;Humidity;BMP_temperature;BMP_pressure;BME280_temperature;BME280_humidity;BME280_pressure;Samples;Min_cycle;Max_cycle;Signal;HPM_P1;HPM_P2
2023/06/01 00:01:04;;;;;;;;;;;;;;;;;;5089165;28;19919;-61
2023/06/01 00:03:29;;;;;;;;;;;;;;;;;;5088505;28;20382;-61
2023/06/01 00:05:56;;;;;;;;;;;;;;;;;;5071245;28;19926;-61
2023/06/01 00:08:22;;;;;;;;;;;;;;;;;;5089055;28;20010;-61
2023/06/01 00:10:48;;;;;;;;;;;;;;;;;;5088812;28;19927;-61
2023/06/01 00:13:14;;;;;;;;;;;;;;;;;;5088750;28;19920;-61
2023/06/01 00:15:40;;;;;;;;;;;;;;;;;;5089006;28;19924;-61
2023/06/01 00:18:08;;;;;;;;;;;;;;;;;;5088411;28;19924;-61
2023/06/01 00:20:34;;;;;;;;;;;;;;;;;;5088900;28;19972;-61
2023/06/01 00:23:00;;;;;;;;;;;;;;;;;;5088476;28;20331;-61
2023/06/01 00:25:25;;;;;;;;;;;;;;;;;;5084493;28;19924;-61
2023/06/01 00:27:51;;;;;;;;;;;;;;;;;;5068670;28;20133;-61
2023/06/01 00:30:17;;;;;;;;;;;;;;;;;;5086859;28;20370;-61
2023/06/01 00:32:43;;;;;;;;;;;;;;;;;;5087848;28;20443;-61
2023/06/01 00:35:09;;;;;;;;;;;;;;;;;;5088792;28;19928;-61
2023/06/01 00:37:35;;;;;;;;;;;;;;;;;;5070416;28;19920;-61
2023/06/01 00:40:01;;;;;;;;;;;;;;;;;;5088203;28;19931;-61
2023/06/01 00:42:27;;;;;;;;;;;;;;;;;;5088689;28;20394;-61
2023/06/01 00:44:53;;;;;;;;;;;;;;;;;;5088506;28;19924;-61
2023/06/01 00:47:19;;;;;;;;;;;;;;;;;;5088210;28;20488;-61
2023/06/01 00:49:45;;;;;;;;;;;;;;;;;;5088529;28;19924;-61
2023/06/01 00:52:11;;;;;;;;;;;;;;;;;;5088311;28;20255;-61
2023/06/01 00:54:37;;;;;;;;;;;;;;;;;;5088068;28;19926;-61
2023/06/01 00:57:03;;;;;;;;;;;;;;;;;;5088629;28;19927;-62
2023/06/01 00:59:29;;;;;;;;;;;;;;;;;;5090946;28;19934;-61
2023/06/01 01:01:55;;;;;;;;;;;;;;;;;;5092056;28;19924;-61
2023/06/01 01:04:25;;;;;;;;;;;;;;;;;;5092220;28;20384;-61
2023/06/01 01:06:51;;;;;;;;;;;;;;;;;;5092198;28;19924;-62
2023/06/01 01:09:17;;;;;;;;;;;;;;;;;;5091541;28;19936;-61
2023/06/01 01:11:43;;;;;;;;;;;;;;;;;;5073923;28;20389;-61
2023/06/01 01:14:09;;;;;;;;;;;;;;;;;;5092236;28;19931;-61
2023/06/01 01:16:35;;;;;;;;;;;;;;;;;;5091659;28;19959;-61
2023/06/01 01:19:01;;;;;;;;;;;;;;;;;;5092048;28;20406;-61
2023/06/01 01:21:30;;;;;;;;;;;;;;;;;;5092015;28;20011;-61
2023/06/01 01:23:58;;;;;;;;;;;;;;;;;;5091451;28;19924;-61
2023/06/01 01:26:24;;;;;;;;;;;;;;;;;;5079640;28;19975;-61
2023/06/01 01:28:50;;;;;;;;;;;;;;;;;;5077634;28;19976;-61
2023/06/01 01:31:16;;;;;;;;;;;;;;;;;;5091400;28;19927;-62
2023/06/01 01:33:42;;;;;;;;;;;;;;;;;;5091566;28;19920;-61
2023/06/01 01:36:08;;;;;;;;;;;;;;;;;;5091820;28;20318;-61
2023/06/01 01:38:35;;;;;;;;;;;;;;;;;;5091331;28;19920;-61
2023/06/01 01:41:01;;;;;;;;;;;;;;;;;;5092010;28;20286;-61
2023/06/01 01:43:27;;;;;;;;;;;;;;;;;;5091959;28;19927;-61
2023/06/01 01:45:53;;;;;;;;;;;;;;;;;;5091251;28;19927;-61
2023/06/01 01:48:18;;;;;;;;;;;;;;;;;;5091299;28;19928;-61
2023/06/01 01:50:44;;;;;;;;;;;;;;;;;;5091274;28;20504;-61
2023/06/01 01:53:10;;;;;;;;;;;;;;;;;;5091238;28;19920;-61
2023/06/01 01:55:36;;;;;;;;;;;;;;;;;;5090939;28;20449;-61
2023/06/01 01:58:02;;;;;;;;;;;;;;;;;;5091328;28;19965;-61
2023/06/01 02:00:28;;;;;;;;;;;;;;;;;;5091063;28;19927;-62
2023/06/01 02:02:54;;;;;;;;;;;;;;;;;;5090851;28;19921;-61
2023/06/01 02:05:20;;;;;;;;;;;;;;;;;;5090922;28;20082;-62
2023/06/01 02:07:46;;;;;;;;;;;;;;;;;;5091178;28;20010;-61
2023/06/01 02:10:12;;;;;;;;;;;;;;;;;;5054414;28;19924;-61
2023/06/01 02:12:38;;;;;;;;;;;;;;;;;;5090908;28;19920;-61
2023/06/01 02:15:04;;;;;;;;;;;;;;;;;;5091189;28;19920;-61
2023/06/01 02:17:29;;;;;;;;;;;;;;;;;;5090612;28;19947;-61
2023/06/01 02:19:55;;;;;;;;;;;;;;;;;;5090969;28;19920;-61
2023/06/01 02:22:21;;;;;;;;;;;;;;;;;;5090715;28;19970;-61
2023/06/01 02:24:47;;;;;;;;;;;;;;;;;;5090169;28;19928;-61
2023/06/01 02:27:13;;;;;;;;;;;;;;;;;;5071828;28;19920;-61
2023/06/01 02:29:39;;;;;;;;;;;;;;;;;;5082990;28;19979;-61
2023/06/01 02:32:05;;;;;;;;;;;;;;;;;;5090006;28;19920;-61
2023/06/01 02:34:31;;;;;;;;;;;;;;;;;;5090287;28;19920;-61
2023/06/01 02:36:57;;;;;;;;;;;;;;;;;;5090483;28;19920;-62
2023/06/01 02:39:23;;;;;;;;;;;;;;;;;;5089867;28;19930;-62
2023/06/01 02:41:49;;;;;;;;;;;;;;;;;;5071888;28;20639;-61
2023/06/01 02:44:15;;;;;;;;;;;;;;;;;;5089963;28;20027;-61
2023/06/01 02:46:41;;;;;;;;;;;;;;;;;;5090062;28;20015;-61
2023/06/01 02:49:07;;;;;;;;;;;;;;;;;;5090071;28;19989;-61
2023/06/01 02:51:33;;;;;;;;;;;;;;;;;;5090561;28;19920;-61
2023/06/01 02:53:59;;;;;;;;;;;;;;;;;;5089526;28;19928;-61
2023/06/01 02:56:26;;;;;;;;;;;;;;;;;;5090182;28;20496;-61
2023/06/01 02:58:52;;;;;;;;;;;;;;;;;;5090095;28;19920;-61
2023/06/01 03:01:19;;;;;;;;;;;;;;;;;;5089619;28;19927;-61
2023/06/01 03:03:46;;;;;;;;;;;;;;;;;;5089912;28;19920;-61
2023/06/01 03:06:13;;;;;;;;;;;;;;;;;;5089895;28;20387;-61
2023/06/01 03:08:39;;;;;;;;;;;;;;;;;;5089271;28;20019;-61
2023/06/01 03:11:05;;;;;;;;;;;;;;;;;;5090123;28;20011;-61
2023/06/01 03:13:31;;;;;;;;;;;;;;;;;;5089746;28;19931;-61
2023/06/01 03:15:57;;;;;;;;;;;;;;;;;;5089375;28;19924;-61
2023/06/01 03:18:23;;;;;;;;;;;;;;;;;;5089703;28;19946;-62
2023/06/01 03:20:49;;;;;;;;;;;;;;;;;;5089714;28;19943;-61
2023/06/01 03:23:15;;;;;;;;;;;;;;;;;;5088721;28;20363;-61
2023/06/01 03:25:42;;;;;;;;;;;;;;;;;;5083355;28;19924;-61
2023/06/01 03:28:08;;;;;;;;;;;;;;;;;;5069634;28;19920;-61
2023/06/01 03:30:34;;;;;;;;;;;;;;;;;;5089255;28;20019;-61
2023/06/01 03:33:00;;;;;;;;;;;;;;;;;;5089675;28;20011;-61
2023/06/01 03:35:26;;;;;;;;;;;;;;;;;;5089528;28;19927;-61
2023/06/01 03:37:52;;;;;;;;;;;;;;;;;;5088694;28;20286;-61
2023/06/01 03:40:18;;;;;;;;;;;;;;;;;;5089642;28;19927;-61
2023/06/01 03:42:44;;;;;;;;;;;;;;;;;;5089360;28;20224;-61
2023/06/01 03:45:10;;;;;;;;;;;;;;;;;;5088936;28;19924;-61
2023/06/01 03:47:36;;;;;;;;;;;;;;;;;;5089493;28;19920;-61
2023/06/01 03:50:01;;;;;;;;;;;;;;;;;;5088984;28;19998;-61
2023/06/01 03:52:27;;;;;;;;;;;;;;;;;;5070287;28;19924;-61
2023/06/01 03:54:54;;;;;;;;;;;;;;;;;;5089239;28;19980;-61
2023/06/01 03:57:20;;;;;;;;;;;;;;;;;;5089279;28;19935;-61
2023/06/01 03:59:46;;;;;;;;;;;;;;;;;;5088526;28;19924;-61
2023/06/01 04:02:12;;;;;;;;;;;;;;;;;;5089101;28;20116;-61
2023/06/01 04:04:40;;;;;;;;;;;;;;;;;;5089116;28;19943;-61
2023/06/01 04:07:06;;;;;;;;;;;;;;;;;;5088640;28;20354;-61
2023/06/01 04:09:32;;;;;;;;;;;;;;;;;;5088946;28;19928;-61
2023/06/01 04:11:58;;;;;;;;;;;;;;;;;;5088926;28;20007;-61
2023/06/01 04:14:24;;;;;;;;;;;;;;;;;;5088482;28;19973;-61
2023/06/01 04:16:50;;;;;;;;;;;;;;;;;;5090329;28;19924;-61
2023/06/01 04:19:16;;;;;;;;;;;;;;;;;;5090912;28;19927;-61
2023/06/01 04:21:43;;;;;;;;;;;;;;;;;;5090252;28;19924;-61
2023/06/01 04:24:09;;;;;;;;;;;;;;;;;;5090797;28;19930;-61
2023/06/01 04:26:35;;;;;;;;;;;;;;;;;;5077047;28;19959;-62
2023/06/01 04:29:02;;;;;;;;;;;;;;;;;;5077301;28;20389;-61
2023/06/01 04:31:29;;;;;;;;;;;;;;;;;;5090578;28;20302;-61
2023/06/01 04:33:56;;;;;;;;;;;;;;;;;;5091331;28;20550;-61
2023/06/01 04:36:22;;;;;;;;;;;;;;;;;;5090933;28;19920;-61
2023/06/01 04:38:51;;;;;;;;;;;;;;;;;;5094561;28;19952;-61
2023/06/01 04:41:16;;;;;;;;;;;;;;;;;;5094552;28;19930;-61
2023/06/01 04:43:42;;;;;;;;;;;;;;;;;;5093819;28;20325;-61
2023/06/01 04:46:08;;;;;;;;;;;;;;;;;;5076010;28;19938;-61
2023/06/01 04:48:34;;;;;;;;;;;;;;;;;;5093921;28;19926;-61
2023/06/01 04:51:01;;;;;;;;;;;;;;;;;;5075626;28;19924;-61
2023/06/01 04:53:27;;;;;;;;;;;;;;;;;;5073513;28;19970;-61
2023/06/01 04:55:53;;;;;;;;;;;;;;;;;;5073949;28;20365;-61
2023/06/01 04:58:19;;;;;;;;;;;;;;;;;;5073449;28;19986;-61
2023/06/01 05:00:45;;;;;;;;;;;;;;;;;;5073983;28;20011;-61
2023/06/01 05:03:12;;;;;;;;;;;;;;;;;;5073932;28;20007;-61
2023/06/01 05:05:38;;;;;;;;;;;;;;;;;;5073938;28;19933;-63
2023/06/01 05:08:03;;;;;;;;;;;;;;;;;;5076795;28;19924;-61
2023/06/01 05:10:29;;;;;;;;;;;;;;;;;;5093555;28;20035;-61
2023/06/01 05:12:55;;;;;;;;;;;;;;;;;;5093654;28;19927;-61
2023/06/01 05:15:21;;;;;;;;;;;;;;;;;;5093340;28;19920;-61
2023/06/01 05:17:47;;;;;;;;;;;;;;;;;;5093689;28;19920;-61
2023/06/01 05:20:13;;;;;;;;;;;;;;;;;;5093624;28;19920;-61
2023/06/01 05:22:39;;;;;;;;;;;;;;;;;;5093225;28;19928;-60
2023/06/01 05:25:05;;;;;;;;;;;;;;;;;;5093376;28;19953;-61
2023/06/01 05:27:31;;;;;;;;;;;;;;;;;;5093464;28;20542;-61
2023/06/01 05:29:57;;;;;;;;;;;;;;;;;;5093104;28;19969;-61
2023/06/01 05:32:23;;;;;;;;;;;;;;;;;;5093144;28;19943;-61
2023/06/01 05:34:49;;;;;;;;;;;;;;;;;;5093416;28;19923;-61
2023/06/01 05:37:15;;;;;;;;;;;;;;;;;;5092820;28;19931;-61
2023/06/01 05:39:41;;;;;;;;;;;;;;;;;;5093464;28;19924;-61
2023/06/01 05:42:07;;;;;;;;;;;;;;;;;;5093342;28;19920;-61
2023/06/01 05:44:33;;;;;;;;;;;;;;;;;;5092616;28;19998;-61
2023/06/01 05:46:59;;;;;;;;;;;;;;;;;;5092865;28;19924;-61
2023/06/01 05:49:25;;;;;;;;;;;;;;;;;;5092989;28;19935;-61
2023/06/01 05:51:51;;;;;;;;;;;;;;;;;;5092688;28;20002;-61
2023/06/01 05:54:17;;;;;;;;;;;;;;;;;;5093003;28;20326;-61
2023/06/01 05:56:44;;;;;;;;;;;;;;;;;;5093130;28;19924;-61
2023/06/01 05:59:10;;;;;;;;;;;;;;;;;;5092607;28;19924;-61
2023/06/01 06:01:36;;;;;;;;;;;;;;;;;;5092880;28;19927;-62
2023/06/01 06:04:02;;;;;;;;;;;;;;;;;;5092563;28;19920;-61
2023/06/01 06:06:28;;;;;;;;;;;;;;;;;;5091758;28;20313;-60
2023/06/01 06:08:54;;;;;;;;;;;;;;;;;;5084457;28;19933;-60
2023/06/01 06:11:21;;;;;;;;;;;;;;;;;;5092626;28;20344;-61
2023/06/01 06:13:47;;;;;;;;;;;;;;;;;;5091782;28;19924;-61
2023/06/01 06:16:13;;;;;;;;;;;;;;;;;;5074285;28;19924;-61
2023/06/01 06:18:39;;;;;;;;;;;;;;;;;;5092216;28;19928;-61
2023/06/01 06:21:05;;;;;;;;;;;;;;;;;;5091656;28;19935;-61
2023/06/01 06:23:32;;;;;;;;;;;;;;;;;;5092193;28;20018;-62
2023/06/01 06:25:58;;;;;;;;;;;;;;;;;;5092117;28;19928;-62
2023/06/01 06:28:24;;;;;;;;;;;;;;;;;;5091499;28;19928;-62
2023/06/01 06:30:50;;;;;;;;;;;;;;;;;;5092034;28;19924;-61
2023/06/01 06:33:16;;;;;;;;;;;;;;;;;;5091668;28;20007;-61
2023/06/01 06:35:42;;;;;;;;;;;;;;;;;;5090560;28;20405;-61
2023/06/01 06:38:08;;;;;;;;;;;;;;;;;;5078641;28;19920;-60
2023/06/01 06:40:34;;;;;;;;;;;;;;;;;;5090566;28;20008;-57
2023/06/01 06:43:01;;;;;;;;;;;;;;;;;;5072288;28;20022;-58
2023/06/01 06:45:27;;;;;;;;;;;;;;;;;;5091652;28;19973;-59
2023/06/01 06:47:53;;;;;;;;;;;;;;;;;;5073258;28;20324;-59
2023/06/01 06:50:19;;;;;;;;;;;;;;;;;;5090250;28;20006;-57
2023/06/01 06:52:45;;;;;;;;;;;;;;;;;;5091056;28;19947;-60
2023/06/01 06:55:11;;;;;;;;;;;;;;;;;;5091126;28;19924;-59
2023/06/01 06:57:39;;;;;;;;;;;;;;;;;;5090511;28;20003;-60
2023/06/01 07:00:05;;;;;;;;;;;;;;;;;;5090775;28;19924;-59
2023/06/01 07:02:31;;;;;;;;;;;;;;;;;;5090679;28;20321;-62
2023/06/01 07:04:57;;;;;;;;;;;;;;;;;;5090661;28;19920;-61
2023/06/01 07:07:23;;;;;;;;;;;;;;;;;;5091120;28;19961;-61
2023/06/01 07:09:49;;;;;;;;;;;;;;;;;;5090815;28;19982;-61
2023/06/01 07:12:15;;;;;;;;;;;;;;;;;;5072109;28;20026;-62
2023/06/01 07:14:41;;;;;;;;;;;;;;;;;;5091052;28;19969;-62
2023/06/01 07:17:07;;;;;;;;;;;;;;;;;;5091221;28;19920;-61
2023/06/01 07:19:35;;;;;;;;;;;;;;;;;;5090152;28;20014;-63
2023/06/01 07:22:01;;;;;;;;;;;;;;;;;;5091055;28;20247;-62
2023/06/01 07:24:27;;;;;;;;;;;;;;;;;;5075951;28;19920;-63
2023/06/01 07:26:53;;;;;;;;;;;;;;;;;;5090048;28;20278;-63
2023/06/01 07:29:19;;;;;;;;;;;;;;;;;;5084824;28;19939;-62
2023/06/01 07:31:45;;;;;;;;;;;;;;;;;;5090638;28;19920;-62
2023/06/01 07:34:11;;;;;;;;;;;;;;;;;;5084684;28;19924;-62
2023/06/01 07:36:38;;;;;;;;;;;;;;;;;;5089975;28;20401;-63
2023/06/01 07:39:06;;;;;;;;;;;;;;;;;;5089693;28;19924;-63
2023/06/01 07:41:32;;;;;;;;;;;;;;;;;;5090046;28;20072;-62
2023/06/01 07:43:58;;;;;;;;;;;;;;;;;;5090125;28;19920;-61
2023/06/01 07:46:24;;;;;;;;;;;;;;;;;;5090641;28;20289;-60
2023/06/01 07:48:50;;;;;;;;;;;;;;;;;;5089676;28;19998;-62
2023/06/01 07:51:16;;;;;;;;;;;;;;;;;;5089840;28;19931;-62
2023/06/01 07:53:43;;;;;;;;;;;;;;;;;;5087742;28;19920;-61
2023/06/01 07:56:09;;;;;;;;;;;;;;;;;;5076884;28;19929;-62
2023/06/01 07:58:36;;;;;;;;;;;;;;;;;;5082340;28;20660;-61
2023/06/01 08:01:02;;;;;;;;;;;;;;;;;;5084209;28;19920;-61
2023/06/01 08:03:28;;;;;;;;;;;;;;;;;;5089736;28;20348;-60
2023/06/01 08:05:57;;;;;;;;;;;;;;;;;;5090410;28;20022;-61
2023/06/01 08:08:23;;;;;;;;;;;;;;;;;;5088619;28;19924;-61
2023/06/01 08:10:49;;;;;;;;;;;;;;;;;;5089679;28;19924;-59
2023/06/01 08:13:15;;;;;;;;;;;;;;;;;;5089705;28;19924;-61
2023/06/01 08:15:42;;;;;;;;;;;;;;;;;;5090149;28;19976;-61
2023/06/01 08:18:08;;;;;;;;;;;;;;;;;;5090020;28;20415;-61
2023/06/01 08:20:35;;;;;;;;;;;;;;;;;;5089163;28;20069;-61
2023/06/01 08:23:02;;;;;;;;;;;;;;;;;;5090042;28;19924;-61
2023/06/01 08:25:28;;;;;;;;;;;;;;;;;;5089228;28;19928;-62
2023/06/01 08:27:55;;;;;;;;;;;;;;;;;;5067205;28;19925;-62
2023/06/01 08:30:21;;;;;;;;;;;;;;;;;;5088825;28;19924;-62
2023/06/01 08:32:48;;;;;;;;;;;;;;;;;;5089448;28;20306;-63
2023/06/01 08:35:15;;;;;;;;;;;;;;;;;;5089346;28;19928;-62
2023/06/01 08:37:41;;;;;;;;;;;;;;;;;;5089734;28;19924;-64
2023/06/01 08:40:09;;;;;;;;;;;;;;;;;;5088980;28;19920;-62
2023/06/01 08:42:35;;;;;;;;;;;;;;;;;;5089011;28;19920;-62
2023/06/01 08:45:01;;;;;;;;;;;;;;;;;;5089549;28;20567;-62
2023/06/01 08:47:27;;;;;;;;;;;;;;;;;;5089962;28;19920;-62
2023/06/01 08:49:53;;;;;;;;;;;;;;;;;;5088082;28;19935;-63
2023/06/01 08:52:20;;;;;;;;;;;;;;;;;;5089478;28;19928;-63
2023/06/01 08:54:46;;;;;;;;;;;;;;;;;;5089407;28;19927;-63
2023/06/01 08:57:12;;;;;;;;;;;;;;;;;;5089008;28;19924;-63
2023/06/01 08:59:39;;;;;;;;;;;;;;;;;;5089300;28;19940;-62
2023/06/01 09:02:05;;;;;;;;;;;;;;;;;;5089391;28;20053;-62
2023/06/01 09:04:31;;;;;;;;;;;;;;;;;;5089258;28;20418;-62
2023/06/01 09:06:57;;;;;;;;;;;;;;;;;;5085974;28;19928;-62
2023/06/01 09:09:22;;;;;;;;;;;;;;;;;;5088197;28;19928;-63
2023/06/01 09:11:49;;;;;;;;;;;;;;;;;;5088654;28;19938;-61
2023/06/01 09:14:15;;;;;;;;;;;;;;;;;;5089329;28;19920;-61
2023/06/01 09:16:41;;;;;;;;;;;;;;;;;;5069622;28;20282;-62
2023/06/01 09:19:08;;;;;;;;;;;;;;;;;;5070689;28;19963;-60
2023/06/01 09:21:34;;;;;;;;;;;;;;;;;;5092717;28;20124;-61
2023/06/01 09:24:00;;;;;;;;;;;;;;;;;;5090055;28;20015;-62
2023/06/01 09:26:27;;;;;;;;;;;;;;;;;;5085736;28;20057;-62
2023/06/01 09:28:56;;;;;;;;;;;;;;;;;;5063103;28;19932;-62
2023/06/01 09:31:22;;;;;;;;;;;;;;;;;;5092406;28;19924;-62
2023/06/01 09:33:47;;;;;;;;;;;;;;;;;;5092214;28;19950;-62
2023/06/01 09:36:13;;;;;;;;;;;;;;;;;;5074297;28;19924;-61
2023/06/01 09:38:39;;;;;;;;;;;;;;;;;;5092915;28;19932;-62
2023/06/01 09:41:05;;;;;;;;;;;;;;;;;;5091696;28;19920;-61
2023/06/01 09:43:36;;;;;;;;;;;;;;;;;;5092467;28;19920;-61
2023/06/01 09:46:02;;;;;;;;;;;;;;;;;;5092668;28;20011;-61
2023/06/01 09:48:29;;;;;;;;;;;;;;;;;;5091938;28;20014;-62
2023/06/01 09:50:55;;;;;;;;;;;;;;;;;;5092184;28;19932;-63
2023/06/01 09:53:21;;;;;;;;;;;;;;;;;;5092033;28;20344;-62
2023/06/01 09:55:47;;;;;;;;;;;;;;;;;;5091631;28;19920;-61
2023/06/01 09:58:13;;;;;;;;;;;;;;;;;;5092386;28;19920;-61
2023/06/01 10:00:39;;;;;;;;;;;;;;;;;;5064850;28;19924;-61
2023/06/01 10:03:05;;;;;;;;;;;;;;;;;;5091946;28;19947;-62
2023/06/01 10:05:31;;;;;;;;;;;;;;;;;;5092113;28;19924;-62
2023/06/01 10:07:57;;;;;;;;;;;;;;;;;;5092116;28;19981;-61
2023/06/01 10:10:22;;;;;;;;;;;;;;;;;;5091085;28;19924;-62
2023/06/01 10:12:48;;;;;;;;;;;;;;;;;;5091132;28;19920;-62
2023/06/01 10:15:15;;;;;;;;;;;;;;;;;;5091688;28;19935;-64
2023/06/01 10:17:42;;;;;;;;;;;;;;;;;;5082315;28;20294;-65
2023/06/01 10:20:08;;;;;;;;;;;;;;;;;;5092084;28;19920;-63
2023/06/01 10:22:34;;;;;;;;;;;;;;;;;;5091701;28;19920;-61
2023/06/01 10:25:00;;;;;;;;;;;;;;;;;;5090689;28;19971;-62
2023/06/01 10:27:26;;;;;;;;;;;;;;;;;;5091922;28;19964;-62
2023/06/01 10:29:52;;;;;;;;;;;;;;;;;;5091597;28;20382;-63
2023/06/01 10:32:18;;;;;;;;;;;;;;;;;;5090073;28;19985;-62
2023/06/01 10:34:47;;;;;;;;;;;;;;;;;;5091753;28;19924;-63
2023/06/01 10:37:13;;;;;;;;;;;;;;;;;;5091158;28;19928;-62
2023/06/01 10:39:39;;;;;;;;;;;;;;;;;;5086284;28;19924;-63
2023/06/01 10:42:05;;;;;;;;;;;;;;;;;;5091445;28;20011;-63
2023/06/01 10:44:31;;;;;;;;;;;;;;;;;;5073668;28;19920;-63
2023/06/01 10:46:57;;;;;;;;;;;;;;;;;;5091028;28;19920;-62
2023/06/01 10:49:23;;;;;;;;;;;;;;;;;;5091500;28;19928;-62
2023/06/01 10:51:49;;;;;;;;;;;;;;;;;;5091618;28;19924;-62
2023/06/01 10:54:15;;;;;;;;;;;;;;;;;;5091193;28;20003;-62
2023/06/01 10:56:41;;;;;;;;;;;;;;;;;;5091531;28;19924;-62
2023/06/01 10:59:10;;;;;;;;;;;;;;;;;;5091082;28;19920;-62
2023/06/01 11:01:36;;;;;;;;;;;;;;;;;;5091162;28;19924;-62
2023/06/01 11:04:02;;;;;;;;;;;;;;;;;;5091369;28;20267;-62
2023/06/01 11:06:27;;;;;;;;;;;;;;;;;;5073284;28;19924;-63
2023/06/01 11:08:54;;;;;;;;;;;;;;;;;;5090747;28;19947;-65
2023/06/01 11:11:20;;;;;;;;;;;;;;;;;;5091086;28;19974;-63
2023/06/01 11:13:49;;;;;;;;;;;;;;;;;;5091395;28;19935;-63
2023/06/01 11:16:24;;;;;;;;;;;;;;;;;;5090711;28;19920;-63
2023/06/01 11:18:57;;;;;;;;;;;;;;;;;;5091434;28;20024;-63
2023/06/01 11:21:24;;;;;;;;;;;;;;;;;;5090790;28;19968;-62
2023/06/01 11:23:50;;;;;;;;;;;;;;;;;;5090626;28;19935;-63
2023/06/01 11:26:16;;;;;;;;;;;;;;;;;;5091005;28;19928;-64
2023/06/01 11:28:42;;;;;;;;;;;;;;;;;;5090249;28;19920;-64
2023/06/01 11:31:10;;;;;;;;;;;;;;;;;;5089688;28;22253;-62
2023/06/01 11:33:36;;;;;;;;;;;;;;;;;;5091119;28;19924;-63
2023/06/01 11:36:04;;;;;;;;;;;;;;;;;;5072601;28;19973;-63
2023/06/01 11:38:30;;;;;;;;;;;;;;;;;;5083961;28;19928;-64
2023/06/01 11:40:56;;;;;;;;;;;;;;;;;;5090278;28;19920;-63
2023/06/01 11:43:22;;;;;;;;;;;;;;;;;;5090456;28;19920;-63
2023/06/01 11:45:48;;;;;;;;;;;;;;;;;;5089834;28;19930;-62
2023/06/01 11:48:14;;;;;;;;;;;;;;;;;;5090047;28;19959;-62
2023/06/01 11:50:40;;;;;;;;;;;;;;;;;;5083135;28;19928;-62
2023/06/01 11:53:06;;;;;;;;;;;;;;;;;;5089831;28;19950;-64
2023/06/01 11:55:32;;;;;;;;;;;;;;;;;;5090351;28;19920;-64
2023/06/01 11:57:58;;;;;;;;;;;;;;;;;;5089388;28;20064;-64
2023/06/01 12:00:25;;;;;;;;;;;;;;;;;;5089347;28;19967;-62
2023/06/01 12:02:51;;;;;;;;;;;;;;;;;;5088096;28;19921;-63
2023/06/01 12:05:17;;;;;;;;;;;;;;;;;;5088934;28;19931;-63
2023/06/01 12:07:44;;;;;;;;;;;;;;;;;;5082170;28;19920;-62
2023/06/01 12:10:09;;;;;;;;;;;;;;;;;;5088532;28;19936;-63
2023/06/01 12:12:36;;;;;;;;;;;;;;;;;;5084831;28;19951;-62
2023/06/01 12:15:02;;;;;;;;;;;;;;;;;;5088681;28;19962;-62
2023/06/01 12:17:28;;;;;;;;;;;;;;;;;;5088733;28;19924;-61
2023/06/01 12:19:54;;;;;;;;;;;;;;;;;;5088481;28;20354;-64
2023/06/01 12:22:20;;;;;;;;;;;;;;;;;;5085731;28;19928;-64
2023/06/01 12:24:46;;;;;;;;;;;;;;;;;;5081484;28;19932;-62
2023/06/01 12:27:13;;;;;;;;;;;;;;;;;;5081954;28;19924;-62
2023/06/01 12:29:41;;;;;;;;;;;;;;;;;;5085794;28;19940;-62
2023/06/01 12:32:07;;;;;;;;;;;;;;;;;;5088951;28;19931;-64
2023/06/01 12:34:33;;;;;;;;;;;;;;;;;;5089556;28;20455;-64
2023/06/01 12:36:59;;;;;;;;;;;;;;;;;;5071557;28;19924;-64
2023/06/01 12:39:25;;;;;;;;;;;;;;;;;;5088988;28;20419;-64
2023/06/01 12:41:51;;;;;;;;;;;;;;;;;;5089503;28;19931;-64
2023/06/01 12:44:17;;;;;;;;;;;;;;;;;;5089247;28;19978;-63
2023/06/01 12:46:43;;;;;;;;;;;;;;;;;;5089101;28;20011;-63
2023/06/01 12:49:09;;;;;;;;;;;;;;;;;;5084112;28;19928;-63
2023/06/01 12:51:36;;;;;;;;;;;;;;;;;;5089347;28;20435;-64
2023/06/01 12:54:02;;;;;;;;;;;;;;;;;;5088940;28;20278;-64
2023/06/01 12:56:28;;;;;;;;;;;;;;;;;;5093634;28;19920;-63
2023/06/01 12:58:54;;;;;;;;;;;;;;;;;;5092835;28;20411;-63
2023/06/01 13:01:20;;;;;;;;;;;;;;;;;;5092537;28;19928;-63
2023/06/01 13:03:46;;;;;;;;;;;;;;;;;;5088558;28;20057;-63
2023/06/01 13:06:12;;;;;;;;;;;;;;;;;;5093719;28;19928;-62
2023/06/01 13:08:38;;;;;;;;;;;;;;;;;;5092787;28;20275;-62
2023/06/01 13:11:04;;;;;;;;;;;;;;;;;;5088293;28;19939;-62
2023/06/01 13:13:30;;;;;;;;;;;;;;;;;;5092956;28;19993;-61
2023/06/01 13:15:56;;;;;;;;;;;;;;;;;;5092555;28;19927;-62
2023/06/01 13:18:22;;;;;;;;;;;;;;;;;;5093217;28;19920;-63
2023/06/01 13:20:48;;;;;;;;;;;;;;;;;;5092571;28;19920;-64
2023/06/01 13:23:14;;;;;;;;;;;;;;;;;;5092452;28;19924;-64
2023/06/01 13:25:40;;;;;;;;;;;;;;;;;;5092052;28;19932;-63
2023/06/01 13:28:07;;;;;;;;;;;;;;;;;;5092184;28;19924;-63
2023/06/01 13:30:33;;;;;;;;;;;;;;;;;;5092128;28;19924;-63
2023/06/01 13:32:59;;;;;;;;;;;;;;;;;;5087249;28;19935;-62
2023/06/01 13:35:25;;;;;;;;;;;;;;;;;;5092744;28;19924;-63
2023/06/01 13:37:52;;;;;;;;;;;;;;;;;;5091770;28;19924;-62
2023/06/01 13:40:18;;;;;;;;;;;;;;;;;;5087502;28;20363;-62
2023/06/01 13:42:44;;;;;;;;;;;;;;;;;;5092751;28;19927;-61
2023/06/01 13:45:10;;;;;;;;;;;;;;;;;;5092293;28;19928;-63
2023/06/01 13:47:36;;;;;;;;;;;;;;;;;;5092195;28;19931;-62
2023/06/01 13:50:03;;;;;;;;;;;;;;;;;;5090310;28;19967;-64
2023/06/01 13:52:29;;;;;;;;;;;;;;;;;;5090673;28;20010;-64
2023/06/01 13:54:55;;;;;;;;;;;;;;;;;;5092612;28;20015;-63
2023/06/01 13:57:22;;;;;;;;;;;;;;;;;;5092287;28;19920;-63
2023/06/01 13:59:48;;;;;;;;;;;;;;;;;;5091597;28;19924;-64
2023/06/01 14:02:14;;;;;;;;;;;;;;;;;;5092367;28;19931;-63
2023/06/01 14:04:39;;;;;;;;;;;;;;;;;;5087707;28;19928;-63
2023/06/01 14:07:05;;;;;;;;;;;;;;;;;;5090519;28;19926;-64
2023/06/01 14:09:31;;;;;;;;;;;;;;;;;;5091935;28;19946;-64
2023/06/01 14:11:57;;;;;;;;;;;;;;;;;;5092386;28;19920;-63
2023/06/01 14:14:23;;;;;;;;;;;;;;;;;;5091624;28;20009;-63
2023/06/01 14:16:49;;;;;;;;;;;;;;;;;;5073935;28;19924;-63
2023/06/01 14:19:15;;;;;;;;;;;;;;;;;;5086824;28;20023;-63
2023/06/01 14:21:41;;;;;;;;;;;;;;;;;;5091428;28;20019;-62
2023/06/01 14:24:07;;;;;;;;;;;;;;;;;;5092189;28;19927;-62
2023/06/01 14:26:33;;;;;;;;;;;;;;;;;;5091801;28;19925;-63
2023/06/01 14:28:59;;;;;;;;;;;;;;;;;;5091098;28;19928;-63
2023/06/01 14:31:25;;;;;;;;;;;;;;;;;;5092065;28;19974;-63
2023/06/01 14:33:51;;;;;;;;;;;;;;;;;;5091686;28;19929;-64
2023/06/01 14:36:19;;;;;;;;;;;;;;;;;;5091783;28;19963;-64
2023/06/01 14:38:45;;;;;;;;;;;;;;;;;;5091851;28;19963;-64
2023/06/01 14:41:11;;;;;;;;;;;;;;;;;;5091866;28;19974;-64
2023/06/01 14:43:39;;;;;;;;;;;;;;;;;;5091507;28;20030;-64
2023/06/01 14:46:05;;;;;;;;;;;;;;;;;;5092082;28;20401;-64
2023/06/01 14:48:31;;;;;;;;;;;;;;;;;;5091806;28;19969;-64
2023/06/01 14:50:56;;;;;;;;;;;;;;;;;;5091290;28;19931;-64
2023/06/01 14:53:22;;;;;;;;;;;;;;;;;;5091820;28;19993;-64
2023/06/01 14:55:48;;;;;;;;;;;;;;;;;;5091955;28;19927;-64
2023/06/01 14:58:14;;;;;;;;;;;;;;;;;;5091337;28;19929;-64
2023/06/01 15:00:40;;;;;;;;;;;;;;;;;;5091669;28;19973;-64
2023/06/01 15:03:09;;;;;;;;;;;;;;;;;;5091590;28;19982;-64
2023/06/01 15:05:35;;;;;;;;;;;;;;;;;;5091125;28;20345;-64
2023/06/01 15:08:01;;;;;;;;;;;;;;;;;;5091684;28;20010;-64
2023/06/01 15:10:27;;;;;;;;;;;;;;;;;;5091577;28;19949;-64
2023/06/01 15:12:54;;;;;;;;;;;;;;;;;;5090774;28;19923;-64
2023/06/01 15:15:19;;;;;;;;;;;;;;;;;;5091474;28;19928;-64
2023/06/01 15:17:45;;;;;;;;;;;;;;;;;;5091079;28;19972;-64
2023/06/01 15:20:11;;;;;;;;;;;;;;;;;;5072875;28;19920;-64
2023/06/01 15:22:37;;;;;;;;;;;;;;;;;;5091316;28;19943;-64
2023/06/01 15:25:03;;;;;;;;;;;;;;;;;;5090374;28;19993;-64
2023/06/01 15:27:30;;;;;;;;;;;;;;;;;;5070740;28;20035;-64
2023/06/01 15:29:56;;;;;;;;;;;;;;;;;;5085799;28;19928;-64
2023/06/01 15:32:21;;;;;;;;;;;;;;;;;;5072512;28;19942;-64
2023/06/01 15:34:47;;;;;;;;;;;;;;;;;;5090693;28;20010;-64
2023/06/01 15:37:13;;;;;;;;;;;;;;;;;;5090941;28;19924;-64
2023/06/01 15:39:39;;;;;;;;;;;;;;;;;;5091046;28;19932;-65
2023/06/01 15:42:05;;;;;;;;;;;;;;;;;;5090938;28;19942;-64
2023/06/01 15:44:31;;;;;;;;;;;;;;;;;;5090653;28;19970;-64
2023/06/01 15:46:57;;;;;;;;;;;;;;;;;;5091013;28;19943;-64
2023/06/01 15:49:23;;;;;;;;;;;;;;;;;;5090966;28;19924;-64
2023/06/01 15:51:49;;;;;;;;;;;;;;;;;;5090431;28;19943;-64
2023/06/01 15:54:15;;;;;;;;;;;;;;;;;;5090856;28;19920;-64
2023/06/01 15:56:41;;;;;;;;;;;;;;;;;;5090813;28;19978;-64
2023/06/01 15:59:08;;;;;;;;;;;;;;;;;;5072161;28;19924;-64
2023/06/01 16:01:34;;;;;;;;;;;;;;;;;;5090830;28;19924;-64
2023/06/01 16:04:00;;;;;;;;;;;;;;;;;;5090724;28;19928;-64
2023/06/01 16:06:26;;;;;;;;;;;;;;;;;;5090356;28;19920;-65
2023/06/01 16:08:52;;;;;;;;;;;;;;;;;;5090800;28;19924;-64
2023/06/01 16:11:18;;;;;;;;;;;;;;;;;;5090987;28;19969;-65
2023/06/01 16:13:44;;;;;;;;;;;;;;;;;;5090110;28;20315;-64
2023/06/01 16:16:10;;;;;;;;;;;;;;;;;;5090638;28;19979;-64
2023/06/01 16:18:36;;;;;;;;;;;;;;;;;;5090800;28;19970;-64
2023/06/01 16:21:04;;;;;;;;;;;;;;;;;;5089905;28;19995;-64
2023/06/01 16:23:30;;;;;;;;;;;;;;;;;;5090630;28;19971;-65
2023/06/01 16:25:56;;;;;;;;;;;;;;;;;;5082407;28;19987;-64
2023/06/01 16:28:22;;;;;;;;;;;;;;;;;;5071731;28;19921;-64
2023/06/01 16:30:48;;;;;;;;;;;;;;;;;;5093878;28;19977;-64
2023/06/01 16:33:14;;;;;;;;;;;;;;;;;;5075921;28;20007;-64
2023/06/01 16:35:40;;;;;;;;;;;;;;;;;;5093971;28;19928;-64
2023/06/01 16:38:06;;;;;;;;;;;;;;;;;;5094634;28;19973;-64